Last 24 Hours

BDVWA

Hourly Data | America/Los_Angeles
as of 9/1/26 3:34 PM PDT
Date & Time Temp (°F) RH (%) Dew Pt (°F) Wind Dir (°) Wind Spd (mph) Wind Gust (mph) Wind Gst Dir (°) Pressure (mb) Barometric Press (inHg) Soil Temp (°F) Solar Rad (W/m2) Latest Rain (In) Daily Rain (In) Daily Min Temp (°F) Daily Max Temp (°F) Daily Max Wind (mph) Daily ETo (in)
9/1/26 - 1500 86.6 16 34.9 S | 178 13.1 25.6 S | 181 1,006.9 29.70 91.6 867 0.00 0.00 63.6 87.6 32.9 0.219
9/1/26 - 1400 85.7 17 36.3 S | 187 14.0 27.0 SSW | 198 1,007.5 29.72 91.8 942 0.00 0.00 63.6 87.4 32.9 0.185
9/1/26 - 1300 84.5 20 39.0 S | 176 15.4 29.8 S | 181 1,008.1 29.74 92.0 953 0.00 0.00 63.6 86.2 32.9 0.150
9/1/26 - 1200 83.0 22 39.7 S | 180 15.9 32.9 SSE | 158 1,009.0 29.77 92.2 912 0.00 0.00 63.6 84.3 32.9 0.114
9/1/26 - 1100 81.5 23 40.3 S | 184 12.0 26.5 S | 189 1,009.7 29.79 92.4 804 0.00 0.00 63.6 83.3 26.5 0.081
9/1/26 - 1000 79.5 26 41.5 SSW | 197 9.0 20.4 S | 191 1,010.1 29.80 92.6 640 0.00 0.00 63.6 80.8 20.4 0.052
9/1/26 - 0900 77.1 26 39.9 SSW | 212 4.1 14.9 SSW | 209 1,010.4 29.81 92.8 433 0.00 0.00 63.6 78.7 14.9 0.030
9/1/26 - 0800 72.0 25 33.9 NW | 310 3.3 8.6 WNW | 286 1,011.3 29.83 92.9 213 0.00 0.00 63.6 74.9 14.0 0.017
9/1/26 - 0700 66.1 27 30.8 W | 280 4.9 11.0 W | 262 1,012.1 29.86 93.1 38 0.00 0.00 63.6 70.9 14.0 0.012
9/1/26 - 0600 68.4 22 27.9 SW | 232 6.7 14.0 SW | 232 1,011.2 29.83 93.2 0 0.00 0.00 63.6 70.9 14.0 0.010
9/1/26 - 0500 65.6 32 34.8 W | 272 5.2 9.6 W | 279 1,012.0 29.86 93.3 0 0.00 0.00 63.6 70.9 11.4 0.007
9/1/26 - 0400 64.8 35 36.3 W | 271 5.6 9.9 W | 262 1,012.2 29.86 93.4 0 0.00 0.00 64.4 68.6 11.4 0.005
9/1/26 - 0300 66.2 34 37.4 W | 262 4.5 9.2 W | 269 1,011.9 29.85 93.4 0 0.00 0.00 64.6 68.6 11.4 0.003
9/1/26 - 0200 67.5 33 37.1 WNW | 284 4.3 11.4 W | 262 1,011.5 29.84 93.4 0 0.00 0.00 66.1 68.6 11.4 0.001
9/1/26 - 0100 68.3 32 37.7 W | 264 3.6 7.5 W | 275 1,011.5 29.84 93.4 0 0.00 0.00 65.3 89.7 30.9 0.314
9/1/26 - 0000 71.7 31 39.1 W | 275 4.4 9.6 SSW | 205 1,010.5 29.81 93.3 0 0.00 0.00 65.3 89.7 30.9 0.313
8/31/26 - 2300 73.8 30 40.6 SW | 235 5.1 9.9 SSW | 208 1,009.9 29.79 93.2 0 0.00 0.00 65.3 89.7 30.9 0.311
8/31/26 - 2200 75.2 33 44.5 SSW | 200 8.9 16.9 S | 187 1,009.3 29.78 93.1 0 0.00 0.00 65.3 89.7 30.9 0.309
8/31/26 - 2100 77.5 32 45.6 SSW | 196 8.9 15.8 S | 190 1,008.0 29.74 93.0 0 0.00 0.00 65.3 89.7 30.9 0.306
8/31/26 - 2000 81.0 26 43.1 SSW | 203 11.1 22.4 SSW | 212 1,006.4 29.69 92.9 2 0.00 0.00 65.3 89.7 30.9 0.302
8/31/26 - 1900 83.8 24 43.2 SSW | 206 13.2 25.0 SSW | 206 1,005.4 29.66 92.8 108 0.00 0.00 65.3 89.7 30.9 0.296
8/31/26 - 1800 86.6 21 41.9 SSW | 198 14.9 26.1 SSW | 203 1,004.7 29.64 92.7 329 0.00 0.00 65.3 89.7 30.9 0.284
8/31/26 - 1700 88.2 20 41.5 S | 186 15.4 28.9 SW | 222 1,004.3 29.63 92.7 547 0.00 0.00 65.3 89.7 30.9 0.263
8/31/26 - 1600 88.4 21 44.1 S | 176 14.2 27.0 SW | 216 1,004.8 29.64 92.8 733 0.00 0.00 65.3 89.7 30.9 0.237
8/31/26 - 1500 88.0 24 46.2 S | 182 14.9 30.9 S | 179 1,005.5 29.66 92.9 858 0.00 0.00 65.3 89.4 30.9 0.206
Max 88.4 35 46.2 - 15.9 32.9 - 1,012.2 29.86 93.4 953 0.00 0.00 66.1 89.7 32.9 0.314
Avg 77.2 26 39.1 - 9.3 18.8 - 1,009.0 29.77 92.8 335 0.00 - - - - -
Min 64.8 16 27.9 - 3.3 7.5 - 1,004.3 29.63 91.6 0 0.00 0.00 63.6 68.6 11.4 0.001
Total - - - - - - - - - - - 0.00 - - - - -